createdAt,value
2017-07-22T00:03:15.599Z,"    0"
2017-07-22T00:08:12.003Z,"    0"
2017-07-22T00:13:07.595Z,"    0"
2017-07-22T00:18:03.697Z,"    0"
2017-07-22T00:23:00.539Z,"    0"
2017-07-22T00:27:56.058Z,"    0"
2017-07-22T00:32:53.488Z,"    0"
2017-07-22T00:37:49.472Z,"    0"
2017-07-22T00:42:45.463Z,"    0"
2017-07-22T00:47:41.119Z,"    0"
2017-07-22T00:52:36.990Z,"    0"
2017-07-22T00:57:33.419Z,"    0"
2017-07-22T01:02:30.056Z,"    0"
2017-07-22T01:07:25.544Z,"    0"
2017-07-22T01:12:21.651Z,"    0"
2017-07-22T01:17:18.394Z,"    0"
2017-07-22T01:22:14.121Z,"    0"
2017-07-22T01:27:10.933Z,"    0"
2017-07-22T01:32:06.991Z,"    0"
2017-07-22T01:37:02.701Z,"    0"
2017-07-22T01:41:58.860Z,"    0"
2017-07-22T01:46:54.695Z,"    0"
2017-07-22T01:51:51.848Z,"    0"
2017-07-22T01:56:47.168Z,"    0"
2017-07-22T02:01:43.110Z,"    0"
2017-07-22T02:06:39.933Z,"    0"
2017-07-22T02:11:36.781Z,"    0"
2017-07-22T02:16:33.603Z,"    0"
2017-07-22T02:21:29.129Z,"    0"
2017-07-22T02:26:25.055Z,"    0"
2017-07-22T02:31:23.210Z,"    0"
2017-07-22T02:36:19.628Z,"    0"
2017-07-22T02:41:15.369Z,"    0"
2017-07-22T02:46:13.599Z,"    0"
2017-07-22T02:51:10.436Z,"    0"
2017-07-22T02:56:07.277Z,"    0"
2017-07-22T03:01:04.155Z,"    0"
2017-07-22T03:05:59.462Z,"    0"
2017-07-22T03:10:58.055Z,"    0"
2017-07-22T03:15:53.966Z,"    0"
2017-07-22T03:20:49.587Z,"    0"
2017-07-22T03:25:45.725Z,"    4"
2017-07-22T03:30:41.412Z,"    4"
2017-07-22T03:35:37.632Z,"    8"
2017-07-22T03:40:34.594Z,"   12"
2017-07-22T03:45:30.769Z,"   16"
2017-07-22T03:50:26.273Z,"   20"
2017-07-22T03:55:22.081Z,"   28"
2017-07-22T04:00:18.072Z,"   40"
2017-07-22T04:05:14.860Z,"   52"
2017-07-22T04:10:10.445Z,"   68"
2017-07-22T04:20:10.399Z,"   96"
2017-07-22T04:25:05.612Z,"  128"
2017-07-22T04:30:03.700Z,"  160"
2017-07-22T04:34:59.162Z,"  180"
2017-07-22T04:39:56.383Z,"  200"
2017-07-22T04:44:52.964Z,"  208"
2017-07-22T04:49:48.945Z,"  232"
2017-07-22T04:54:48.003Z,"  280"
2017-07-22T04:59:43.284Z,"  372"
2017-07-22T05:04:40.938Z,"  476"
2017-07-22T05:09:36.170Z,"  508"
2017-07-22T05:14:33.189Z,"  528"
2017-07-22T05:19:28.993Z,"  508"
2017-07-22T05:24:24.979Z,"  596"
2017-07-22T05:29:21.175Z,"  884"
2017-07-22T05:34:17.153Z," 1256"
2017-07-22T05:39:13.096Z," 1456"
2017-07-22T05:44:09.998Z," 1696"
2017-07-22T05:49:05.679Z," 2364"
2017-07-22T05:54:01.644Z," 3204"
2017-07-22T05:58:57.618Z," 3172"
2017-07-22T06:03:53.778Z," 2832"
2017-07-22T06:08:50.019Z," 3244"
2017-07-22T06:13:47.568Z," 3616"
2017-07-22T06:18:45.060Z," 4116"
2017-07-22T06:28:42.637Z," 5108"
2017-07-22T06:33:38.464Z," 6532"
2017-07-22T06:38:35.964Z," 6984"
2017-07-22T06:43:31.742Z," 6736"
2017-07-22T06:48:28.603Z," 6360"
2017-07-22T06:53:25.335Z," 6032"
2017-07-22T06:58:20.991Z," 5912"
2017-07-22T07:03:16.868Z," 5736"
2017-07-22T07:08:12.698Z," 5880"
2017-07-22T07:13:08.508Z," 6216"
2017-07-22T07:18:05.725Z," 6344"
2017-07-22T07:23:02.856Z," 6052"
2017-07-22T07:27:58.596Z," 6040"
2017-07-22T07:32:54.703Z," 6152"
2017-07-22T07:37:51.780Z," 6476"
2017-07-22T07:42:47.390Z," 7720"
2017-07-22T07:47:44.030Z," 7036"
2017-07-22T07:52:39.878Z," 7536"
2017-07-22T07:57:37.391Z,49056
2017-07-22T08:02:36.560Z,58528
2017-07-22T08:07:35.148Z,54752
2017-07-22T08:12:32.954Z,51744
2017-07-22T08:17:30.181Z,58144
2017-07-22T08:22:27.284Z,46272
2017-07-22T08:27:25.148Z,59360
2017-07-22T08:32:21.088Z,57024
2017-07-22T08:37:19.031Z,63008
2017-07-22T08:42:15.667Z,53536
2017-07-22T08:47:13.809Z,15820
2017-07-22T08:52:09.429Z,54432
2017-07-22T08:57:06.196Z,61792
2017-07-22T09:02:01.152Z,39360
2017-07-22T09:06:59.384Z,49056
2017-07-22T09:11:57.098Z,60928
2017-07-22T09:16:53.387Z,74272
2017-07-22T09:21:49.281Z,32864
2017-07-22T09:26:46.019Z,65152
2017-07-22T09:31:42.965Z,74144
2017-07-22T09:36:39.551Z,64672
2017-07-22T09:41:36.071Z,17728
2017-07-22T09:46:31.597Z,70720
2017-07-22T09:51:29.601Z,66752
2017-07-22T09:56:25.778Z,76384
2017-07-22T10:01:25.243Z,83648
2017-07-22T10:06:20.691Z,39904
2017-07-22T10:11:17.193Z,68704
2017-07-22T10:16:13.629Z,82240
2017-07-22T10:21:09.366Z,10104
2017-07-22T10:26:04.679Z,79328
2017-07-22T10:31:02.346Z,72416
2017-07-22T10:35:59.824Z,81472
2017-07-22T10:40:56.235Z,18208
2017-07-22T10:45:50.120Z,10316
2017-07-22T10:50:45.403Z,72384
2017-07-22T10:55:44.665Z,60256
2017-07-22T11:00:40.420Z," 8900"
2017-07-22T11:05:34.839Z,74208
2017-07-22T11:10:34.548Z,55616
2017-07-22T11:15:33.294Z,76224
2017-07-22T11:20:30.115Z,76832
2017-07-22T11:25:28.008Z,44672
2017-07-22T11:30:24.339Z,13712
2017-07-22T11:35:21.524Z," 9028"
2017-07-22T11:40:15.658Z,102016
2017-07-22T11:45:14.256Z,111392
2017-07-22T11:50:12.068Z,95936
2017-07-22T11:55:08.530Z,81472
2017-07-22T12:00:03.106Z,28352
2017-07-22T12:04:58.075Z,93440
2017-07-22T12:09:55.044Z,91968
2017-07-22T12:14:54.652Z,109664
2017-07-22T12:19:51.668Z,110112
2017-07-22T12:24:49.322Z,67520
2017-07-22T12:29:46.059Z,58944
2017-07-22T12:34:42.018Z,72160
2017-07-22T12:39:39.535Z,76416
2017-07-22T12:44:35.434Z,95872
2017-07-22T12:49:31.040Z,111008
2017-07-22T12:54:26.080Z,114368
2017-07-22T12:59:22.889Z,41344
2017-07-22T13:04:18.344Z,43424
2017-07-22T13:09:13.447Z,49536
2017-07-22T13:14:10.929Z,59904
2017-07-22T13:19:06.989Z,74624
2017-07-22T13:24:04.960Z,41568
2017-07-22T13:29:00.147Z,88512
2017-07-22T13:33:56.136Z,17504
2017-07-22T13:38:52.207Z,71776
2017-07-22T13:43:50.324Z,12072
2017-07-22T13:48:44.393Z,24896
2017-07-22T13:53:40.532Z,79424
2017-07-22T13:58:37.191Z,86048
2017-07-22T14:03:34.262Z,66336
2017-07-22T14:08:29.899Z,72288
2017-07-22T14:13:26.043Z," 7468"
2017-07-22T14:18:21.904Z," 7368"
2017-07-22T14:23:16.913Z," 6456"
2017-07-22T14:28:12.186Z," 6136"
2017-07-22T14:33:07.524Z," 5776"
2017-07-22T14:38:04.149Z," 6532"
2017-07-22T14:43:00.614Z," 6336"
2017-07-22T14:47:57.087Z," 6268"
2017-07-22T14:52:53.588Z," 5608"
2017-07-22T14:57:48.795Z," 5948"
2017-07-22T15:02:44.947Z," 5880"
2017-07-22T15:07:41.690Z," 5456"
2017-07-22T15:12:37.147Z," 5008"
2017-07-22T15:17:33.229Z," 4596"
2017-07-22T15:22:28.969Z," 4296"
2017-07-22T15:27:26.118Z," 3932"
2017-07-22T15:32:24.238Z," 4356"
2017-07-22T15:37:20.013Z," 3716"
2017-07-22T15:42:17.275Z," 3704"
2017-07-22T15:47:13.908Z," 3548"
2017-07-22T15:52:15.238Z," 4120"
2017-07-22T15:57:11.498Z," 4668"
2017-07-22T16:02:08.264Z," 5724"
2017-07-22T16:07:05.782Z," 5888"
2017-07-22T16:12:01.572Z," 5072"
2017-07-22T16:16:58.613Z," 4604"
2017-07-22T16:21:54.629Z," 4136"
2017-07-22T16:26:52.023Z," 3096"
2017-07-22T16:31:48.630Z," 2344"
2017-07-22T16:36:45.374Z," 1688"
2017-07-22T16:41:40.847Z," 1508"
2017-07-22T16:46:36.570Z," 1360"
2017-07-22T16:51:32.964Z," 1556"
2017-07-22T16:56:29.723Z," 1908"
2017-07-22T17:01:24.865Z," 2068"
2017-07-22T17:06:20.686Z," 2436"
2017-07-22T17:11:16.610Z," 3284"
2017-07-22T17:16:12.435Z," 4080"
2017-07-22T17:21:10.382Z," 3356"
2017-07-22T17:26:06.041Z," 3004"
2017-07-22T17:31:02.169Z," 2136"
2017-07-22T17:35:57.778Z," 1484"
2017-07-22T17:40:54.198Z," 1236"
2017-07-22T17:50:54.118Z," 1240"
2017-07-22T17:55:50.211Z," 1188"
2017-07-22T18:00:47.224Z," 1032"
2017-07-22T18:05:44.831Z," 1216"
2017-07-22T18:10:41.511Z," 1072"
2017-07-22T18:15:38.253Z,"  900"
2017-07-22T18:20:33.890Z,"  772"
2017-07-22T18:25:30.996Z,"  628"
2017-07-22T18:30:28.143Z,"  508"
2017-07-22T18:35:24.198Z,"  452"
2017-07-22T18:40:21.116Z,"  436"
2017-07-22T18:45:17.101Z,"  424"
2017-07-22T18:50:15.460Z,"  432"
2017-07-22T18:55:11.865Z,"  456"
2017-07-22T19:00:07.397Z,"  412"
2017-07-22T19:05:03.350Z,"  368"
2017-07-22T19:10:00.703Z,"  320"
2017-07-22T19:14:56.600Z,"  268"
2017-07-22T19:19:52.587Z,"  204"
2017-07-22T19:24:48.417Z,"  164"
2017-07-22T19:29:44.509Z,"  124"
2017-07-22T19:34:40.424Z,"   76"
2017-07-22T19:39:37.184Z,"   52"
2017-07-22T19:44:34.467Z,"   36"
2017-07-22T19:49:30.249Z,"   24"
2017-07-22T19:54:25.939Z,"   12"
2017-07-22T19:59:22.381Z,"    8"
2017-07-22T20:04:18.076Z,"    4"
2017-07-22T20:09:13.849Z,"    4"
2017-07-22T20:14:09.735Z,"    0"
2017-07-22T20:19:06.495Z,"    0"
2017-07-22T20:24:02.368Z,"    0"
2017-07-22T20:28:59.091Z,"    0"
2017-07-22T20:33:54.520Z,"    0"
2017-07-22T20:38:51.610Z,"    0"
2017-07-22T20:43:47.163Z,"    0"
2017-07-22T20:48:44.083Z,"    0"
2017-07-22T20:53:40.829Z,"    0"
2017-07-22T20:58:37.311Z,"    0"
2017-07-22T21:03:34.127Z,"    0"
2017-07-22T21:08:29.677Z,"    0"
2017-07-22T21:13:25.782Z,"    0"
2017-07-22T21:18:21.931Z,"    0"
2017-07-22T21:23:18.879Z,"    0"
2017-07-22T21:28:15.396Z,"    0"
2017-07-22T21:33:11.901Z,"    0"
2017-07-22T21:38:07.657Z,"    0"
2017-07-22T21:43:03.637Z,"    0"
2017-07-22T21:47:59.894Z,"    0"
2017-07-22T21:52:55.731Z,"    0"
2017-07-22T21:57:51.727Z,"    0"
2017-07-22T22:02:48.469Z,"    0"
2017-07-22T22:07:44.089Z,"    0"
2017-07-22T22:12:40.198Z,"    0"
2017-07-22T22:17:37.094Z,"    0"
2017-07-22T22:22:32.522Z,"    0"
2017-07-22T22:27:28.470Z,"    0"
2017-07-22T22:32:25.763Z,"    0"
2017-07-22T22:37:21.345Z,"    0"
2017-07-22T22:42:17.182Z,"    0"
2017-07-22T22:47:13.921Z,"    0"
2017-07-22T22:52:11.553Z,"    0"
2017-07-22T22:57:07.022Z,"    0"
2017-07-22T23:02:02.852Z,"    0"
2017-07-22T23:06:59.369Z,"    0"
2017-07-22T23:11:56.768Z,"    0"
2017-07-22T23:16:52.401Z,"    0"
2017-07-22T23:21:48.804Z,"    0"
2017-07-22T23:26:45.586Z,"    0"
2017-07-22T23:31:41.141Z,"    0"
2017-07-22T23:36:38.061Z,"    0"
2017-07-22T23:41:33.816Z,"    0"
2017-07-22T23:46:29.869Z,"    0"
2017-07-22T23:51:26.637Z,"    0"
2017-07-22T23:56:22.819Z,"    0"
